createdAt,value
2017-12-02T00:00:57.000Z,100.00
2017-12-02T00:01:57.000Z,100.00
2017-12-02T00:03:10.000Z,100.00
2017-12-02T00:03:57.000Z,100.00
2017-12-02T00:04:59.000Z,100.00
2017-12-02T00:05:58.000Z,100.00
2017-12-02T00:06:59.000Z,100.00
2017-12-02T00:07:58.000Z,100.00
2017-12-02T00:08:59.000Z,100.00
2017-12-02T00:09:59.000Z,100.00
2017-12-02T00:10:59.000Z,100.00
2017-12-02T00:11:59.000Z,100.00
2017-12-02T00:12:58.000Z,100.00
2017-12-02T00:13:58.000Z,100.00
2017-12-02T00:14:59.000Z,100.00
2017-12-02T00:15:57.000Z,100.00
2017-12-02T00:16:57.000Z,100.00
2017-12-02T00:17:57.000Z,100.00
2017-12-02T00:18:57.000Z,100.00
2017-12-02T00:19:57.000Z,100.00
2017-12-02T00:20:57.000Z,100.00
2017-12-02T00:21:57.000Z,100.00
2017-12-02T00:22:57.000Z,100.00
2017-12-02T00:23:57.000Z,100.00
2017-12-02T00:24:57.000Z,100.00
2017-12-02T00:25:57.000Z,100.00
2017-12-02T00:26:57.000Z,100.00
2017-12-02T00:27:58.000Z,100.00
2017-12-02T00:28:59.000Z,100.00
2017-12-02T00:29:58.000Z,100.00
2017-12-02T00:30:59.000Z,100.00
2017-12-02T00:31:58.000Z,100.00
2017-12-02T00:32:58.000Z,100.00
2017-12-02T00:33:59.000Z,100.00
2017-12-02T00:34:57.000Z,100.00
2017-12-02T00:35:57.000Z,100.00
2017-12-02T00:36:57.000Z,100.00
2017-12-02T00:37:57.000Z,100.00
2017-12-02T00:38:57.000Z,100.00
2017-12-02T00:39:57.000Z,100.00
2017-12-02T00:40:57.000Z,100.00
2017-12-02T00:41:57.000Z,100.00
2017-12-02T00:42:57.000Z,100.00
2017-12-02T00:43:58.000Z,100.00
2017-12-02T00:44:57.000Z,100.00
2017-12-02T00:45:57.000Z,100.00
2017-12-02T00:46:57.000Z,100.00
2017-12-02T00:47:59.000Z,100.00
2017-12-02T00:48:59.000Z,100.00
2017-12-02T00:49:58.000Z,100.00
2017-12-02T00:50:59.000Z,100.00
2017-12-02T00:51:59.000Z,100.00
2017-12-02T00:52:59.000Z,100.00
2017-12-02T00:53:57.000Z,100.00
2017-12-02T00:54:57.000Z,100.00
2017-12-02T00:55:58.000Z,100.00
2017-12-02T00:56:57.000Z,100.00
2017-12-02T00:57:58.000Z,100.00
2017-12-02T00:58:58.000Z,100.00
2017-12-02T00:59:58.000Z,100.00
2017-12-02T01:00:57.000Z,100.00
2017-12-02T01:01:58.000Z,100.00
2017-12-02T01:02:57.000Z,100.00
2017-12-02T01:03:57.000Z,100.00
2017-12-02T01:04:57.000Z,100.00
2017-12-02T01:05:58.000Z,100.00
2017-12-02T01:06:58.000Z,100.00
2017-12-02T01:07:57.000Z,100.00
2017-12-02T01:08:59.000Z,100.00
2017-12-02T01:09:59.000Z,100.00
2017-12-02T01:10:59.000Z,100.00
2017-12-02T01:11:57.000Z,100.00
2017-12-02T01:12:59.000Z,100.00
2017-12-02T01:13:58.000Z,100.00
2017-12-02T01:14:57.000Z,100.00
2017-12-02T01:15:58.000Z,100.00
2017-12-02T01:16:57.000Z,100.00
2017-12-02T01:17:58.000Z,100.00
2017-12-02T01:18:57.000Z,100.00
2017-12-02T01:19:58.000Z,100.00
2017-12-02T01:20:57.000Z,100.00
2017-12-02T01:21:58.000Z,100.00
2017-12-02T01:22:57.000Z,100.00
2017-12-02T01:23:58.000Z,100.00
2017-12-02T01:24:58.000Z,100.00
2017-12-02T01:25:57.000Z,100.00
2017-12-02T01:26:59.000Z,100.00
2017-12-02T01:27:59.000Z,100.00
2017-12-02T01:28:59.000Z,100.00
2017-12-02T01:29:59.000Z,100.00
2017-12-02T01:30:59.000Z,100.00
2017-12-02T01:31:57.000Z,100.00
2017-12-02T01:32:59.000Z,100.00
2017-12-02T01:33:57.000Z,100.00
2017-12-02T01:34:57.000Z,100.00
2017-12-02T01:36:04.000Z,100.00
2017-12-02T01:36:58.000Z,100.00
2017-12-02T01:37:59.000Z,100.00
2017-12-02T01:38:58.000Z,100.00
2017-12-02T01:39:58.000Z,100.00
2017-12-02T01:40:58.000Z,100.00
2017-12-02T01:41:58.000Z,100.00
2017-12-02T01:42:58.000Z,100.00
2017-12-02T01:43:59.000Z,100.00
2017-12-02T01:44:59.000Z,100.00
2017-12-02T01:45:59.000Z,100.00
2017-12-02T01:46:59.000Z,100.00
2017-12-02T01:47:59.000Z,100.00
2017-12-02T01:48:59.000Z,100.00
2017-12-02T01:50:03.000Z,100.00
2017-12-02T01:50:58.000Z,100.00
2017-12-02T01:51:59.000Z,100.00
2017-12-02T01:52:58.000Z,100.00
2017-12-02T01:53:58.000Z,100.00
2017-12-02T01:54:58.000Z,100.00
2017-12-02T01:55:58.000Z,100.00
2017-12-02T01:56:58.000Z,100.00
2017-12-02T01:57:58.000Z,100.00
2017-12-02T01:58:58.000Z,100.00
2017-12-02T01:59:58.000Z,100.00
2017-12-02T02:00:59.000Z,100.00
2017-12-02T02:01:59.000Z,100.00
2017-12-02T02:02:59.000Z,100.00
2017-12-02T02:03:59.000Z,100.00
2017-12-02T02:04:59.000Z,100.00
2017-12-02T02:05:59.000Z,100.00
2017-12-02T02:06:59.000Z,100.00
2017-12-02T02:07:58.000Z,100.00
2017-12-02T02:08:58.000Z,100.00
2017-12-02T02:09:58.000Z,100.00
2017-12-02T02:10:58.000Z,100.00
2017-12-02T02:11:58.000Z,100.00
2017-12-02T02:12:58.000Z,100.00
2017-12-02T02:13:58.000Z,100.00
2017-12-02T02:14:58.000Z,100.00
2017-12-02T02:15:58.000Z,100.00
2017-12-02T02:16:58.000Z,100.00
2017-12-02T02:17:58.000Z,100.00
2017-12-02T02:18:58.000Z,100.00
2017-12-02T02:19:58.000Z,100.00
2017-12-02T02:20:59.000Z,100.00
2017-12-02T02:21:59.000Z,100.00
2017-12-02T02:22:59.000Z,100.00
2017-12-02T02:23:59.000Z,100.00
2017-12-02T02:24:59.000Z,100.00
2017-12-02T02:25:59.000Z,100.00
2017-12-02T02:26:59.000Z,100.00
2017-12-02T02:27:58.000Z,100.00
2017-12-02T02:28:58.000Z,100.00
2017-12-02T02:29:58.000Z,100.00
2017-12-02T02:30:58.000Z,100.00
2017-12-02T02:31:58.000Z,100.00
2017-12-02T02:32:58.000Z,100.00
2017-12-02T02:34:05.000Z,100.00
2017-12-02T02:34:58.000Z,100.00
2017-12-02T02:35:58.000Z,100.00
2017-12-02T02:36:58.000Z,100.00
2017-12-02T02:38:00.000Z,100.00
2017-12-02T02:38:58.000Z,100.00
2017-12-02T02:39:58.000Z,100.00
2017-12-02T02:40:58.000Z,100.00
2017-12-02T02:41:58.000Z,100.00
2017-12-02T02:43:02.000Z,100.00
2017-12-02T02:43:58.000Z,100.00
2017-12-02T02:44:59.000Z,100.00
2017-12-02T02:45:59.000Z,100.00
2017-12-02T02:46:58.000Z,100.00
2017-12-02T02:47:59.000Z,100.00
2017-12-02T02:48:59.000Z,100.00
2017-12-02T02:49:58.000Z,100.00
2017-12-02T02:50:59.000Z,100.00
2017-12-02T02:51:58.000Z,100.00
2017-12-02T02:52:58.000Z,100.00
2017-12-02T02:53:58.000Z,100.00
2017-12-02T02:54:58.000Z,100.00
2017-12-02T02:55:58.000Z,100.00
2017-12-02T02:56:58.000Z,100.00
2017-12-02T02:57:58.000Z,100.00
2017-12-02T02:58:58.000Z,100.00
2017-12-02T02:59:58.000Z,100.00
2017-12-02T03:00:58.000Z,100.00
2017-12-02T03:01:59.000Z,100.00
2017-12-02T03:02:59.000Z,100.00
2017-12-02T03:03:59.000Z,100.00
2017-12-02T03:04:59.000Z,100.00
2017-12-02T03:05:58.000Z,100.00
2017-12-02T03:06:59.000Z,100.00
2017-12-02T03:07:59.000Z,100.00
2017-12-02T03:08:58.000Z,100.00
2017-12-02T03:09:58.000Z,100.00
2017-12-02T03:10:58.000Z,100.00
2017-12-02T03:11:58.000Z,100.00
2017-12-02T03:12:58.000Z,100.00
2017-12-02T03:13:58.000Z,100.00
2017-12-02T03:14:58.000Z,100.00
2017-12-02T03:18:15.000Z,100.00
2017-12-02T03:18:16.000Z,100.00
2017-12-02T03:18:17.000Z,100.00
2017-12-02T03:18:58.000Z,100.00
2017-12-02T03:19:59.000Z,100.00
2017-12-02T03:20:59.000Z,100.00
2017-12-02T03:21:59.000Z,100.00
2017-12-02T03:22:59.000Z,100.00
2017-12-02T03:23:59.000Z,100.00
2017-12-02T03:24:59.000Z,100.00
2017-12-02T03:25:58.000Z,100.00
2017-12-02T03:26:58.000Z,100.00
2017-12-02T03:27:58.000Z,100.00
2017-12-02T03:28:58.000Z,100.00
2017-12-02T03:29:58.000Z,100.00
2017-12-02T03:30:58.000Z,100.00
2017-12-02T03:31:58.000Z,100.00
2017-12-02T03:32:58.000Z,100.00
2017-12-02T03:33:58.000Z,100.00
2017-12-02T03:34:58.000Z,100.00
2017-12-02T03:35:58.000Z,100.00
2017-12-02T03:36:58.000Z,100.00
2017-12-02T03:37:58.000Z,100.00
2017-12-02T03:38:59.000Z,100.00
2017-12-02T03:39:59.000Z,100.00
2017-12-02T03:40:59.000Z,100.00
2017-12-02T03:41:59.000Z,100.00
2017-12-02T03:42:59.000Z,100.00
2017-12-02T03:43:58.000Z,100.00
2017-12-02T03:44:58.000Z,100.00
2017-12-02T03:45:58.000Z,100.00
2017-12-02T03:46:59.000Z,100.00
2017-12-02T03:47:58.000Z,100.00
2017-12-02T03:48:58.000Z,100.00
2017-12-02T03:49:58.000Z,100.00
2017-12-02T03:50:58.000Z,100.00
2017-12-02T03:51:58.000Z,100.00
2017-12-02T03:52:58.000Z,100.00
2017-12-02T03:53:58.000Z,100.00
2017-12-02T03:54:58.000Z,100.00
2017-12-02T03:55:58.000Z,100.00
2017-12-02T03:56:58.000Z,100.00
2017-12-02T03:57:59.000Z,100.00
2017-12-02T03:59:05.000Z,100.00
2017-12-02T03:59:58.000Z,100.00
2017-12-02T04:00:59.000Z,100.00
2017-12-02T04:01:59.000Z,100.00
2017-12-02T04:03:00.000Z,100.00
2017-12-02T04:03:58.000Z,100.00
2017-12-02T04:04:58.000Z,100.00
2017-12-02T04:05:58.000Z,100.00
2017-12-02T04:06:58.000Z,100.00
2017-12-02T04:07:58.000Z,100.00
2017-12-02T04:09:00.000Z,100.00
2017-12-02T04:09:58.000Z,100.00
2017-12-02T04:10:58.000Z,100.00
2017-12-02T04:11:58.000Z,100.00
2017-12-02T04:12:58.000Z,100.00
2017-12-02T04:13:58.000Z,100.00
2017-12-02T04:14:59.000Z,100.00
2017-12-02T04:15:59.000Z,100.00
2017-12-02T04:16:59.000Z,100.00
2017-12-02T04:17:59.000Z,100.00
2017-12-02T04:18:59.000Z,100.00
2017-12-02T04:19:59.000Z,100.00
2017-12-02T04:20:59.000Z,100.00
2017-12-02T04:21:59.000Z,100.00
2017-12-02T04:22:59.000Z,100.00
2017-12-02T04:23:59.000Z,100.00
2017-12-02T04:24:58.000Z,100.00
2017-12-02T04:25:58.000Z,100.00
2017-12-02T04:26:58.000Z,100.00
2017-12-02T04:27:58.000Z,100.00
2017-12-02T04:28:58.000Z,100.00
2017-12-02T04:29:58.000Z,100.00
2017-12-02T04:30:58.000Z,100.00
2017-12-02T04:31:58.000Z,100.00
2017-12-02T04:32:58.000Z,100.00
2017-12-02T04:33:58.000Z,100.00
2017-12-02T04:34:59.000Z,100.00
2017-12-02T04:35:59.000Z,100.00
2017-12-02T04:36:59.000Z,100.00
2017-12-02T04:37:59.000Z,100.00
2017-12-02T04:38:59.000Z,100.00
2017-12-02T04:39:59.000Z,100.00
2017-12-02T04:40:59.000Z,100.00
2017-12-02T04:41:58.000Z,100.00
2017-12-02T04:43:09.000Z,100.00
2017-12-02T04:43:25.000Z,100.00
2017-12-02T04:43:58.000Z,100.00
2017-12-02T04:44:59.000Z,100.00
2017-12-02T04:46:05.000Z,100.00
2017-12-02T04:46:58.000Z,100.00
2017-12-02T04:47:59.000Z,100.00
2017-12-02T04:48:59.000Z,100.00
2017-12-02T04:49:59.000Z,100.00
2017-12-02T04:51:00.000Z,100.00
2017-12-02T04:51:59.000Z,100.00
2017-12-02T04:52:59.000Z,100.00
2017-12-02T04:53:59.000Z,100.00
2017-12-02T04:54:59.000Z,100.00
2017-12-02T04:55:59.000Z,100.00
2017-12-02T04:56:59.000Z,100.00
2017-12-02T04:57:59.000Z,100.00
2017-12-02T04:58:59.000Z,100.00
2017-12-02T04:59:58.000Z,100.00
2017-12-02T05:01:00.000Z,100.00
2017-12-02T05:01:58.000Z,100.00
2017-12-02T05:02:58.000Z,100.00
2017-12-02T05:03:58.000Z,100.00
2017-12-02T05:04:58.000Z,100.00
2017-12-02T05:05:58.000Z,100.00
2017-12-02T05:06:58.000Z,100.00
2017-12-02T05:07:58.000Z,100.00
2017-12-02T05:08:58.000Z,100.00
2017-12-02T05:09:58.000Z,100.00
2017-12-02T05:10:58.000Z,100.00
2017-12-02T05:11:58.000Z,100.00
2017-12-02T05:12:58.000Z,100.00
2017-12-02T05:13:58.000Z,100.00
2017-12-02T05:14:58.000Z,100.00
2017-12-02T05:16:00.000Z,100.00
2017-12-02T05:16:59.000Z,100.00
2017-12-02T05:18:00.000Z,100.00
2017-12-02T05:19:00.000Z,100.00
2017-12-02T05:19:59.000Z,100.00
2017-12-02T05:20:58.000Z,100.00
2017-12-02T05:21:58.000Z,100.00
2017-12-02T05:22:58.000Z,100.00
2017-12-02T05:23:58.000Z,100.00
2017-12-02T05:24:58.000Z,100.00
2017-12-02T05:25:58.000Z,100.00
2017-12-02T05:26:58.000Z,100.00
2017-12-02T05:27:58.000Z,100.00
2017-12-02T05:28:58.000Z,100.00
2017-12-02T05:29:58.000Z,100.00
2017-12-02T05:30:58.000Z,100.00
2017-12-02T05:31:59.000Z,100.00
2017-12-02T05:33:00.000Z,100.00
2017-12-02T05:33:59.000Z,100.00
2017-12-02T05:34:59.000Z,100.00
2017-12-02T05:36:00.000Z,100.00
2017-12-02T05:37:00.000Z,100.00
2017-12-02T05:37:59.000Z,100.00
2017-12-02T05:38:58.000Z,100.00
2017-12-02T05:40:00.000Z,100.00
2017-12-02T05:40:58.000Z,100.00
2017-12-02T05:41:58.000Z,100.00
2017-12-02T05:42:58.000Z,100.00
2017-12-02T05:43:59.000Z,100.00
2017-12-02T05:44:58.000Z,100.00
2017-12-02T05:45:58.000Z,100.00
2017-12-02T05:46:58.000Z,100.00
2017-12-02T05:47:58.000Z,100.00
2017-12-02T05:48:58.000Z,100.00
2017-12-02T05:49:58.000Z,100.00
2017-12-02T05:50:58.000Z,100.00
2017-12-02T05:51:58.000Z,100.00
2017-12-02T05:53:00.000Z,100.00
2017-12-02T05:54:00.000Z,100.00
2017-12-02T05:55:00.000Z,100.00
2017-12-02T05:56:00.000Z,100.00
2017-12-02T05:57:00.000Z,100.00
2017-12-02T05:57:58.000Z,100.00
2017-12-02T05:59:00.000Z,100.00
2017-12-02T05:59:58.000Z,100.00
2017-12-02T06:00:58.000Z,100.00
2017-12-02T06:01:58.000Z,100.00
2017-12-02T06:02:58.000Z,100.00
2017-12-02T06:03:58.000Z,100.00
2017-12-02T06:04:58.000Z,100.00
2017-12-02T06:05:58.000Z,100.00
2017-12-02T06:06:58.000Z,100.00
2017-12-02T06:07:58.000Z,100.00
2017-12-02T06:08:58.000Z,100.00
2017-12-02T06:09:58.000Z,100.00
2017-12-02T06:10:59.000Z,100.00
2017-12-02T06:12:00.000Z,100.00
2017-12-02T06:13:00.000Z,100.00
2017-12-02T06:14:00.000Z,100.00
2017-12-02T06:14:58.000Z,100.00
2017-12-02T06:15:58.000Z,100.00
2017-12-02T06:17:00.000Z,100.00
2017-12-02T06:17:58.000Z,100.00
2017-12-02T06:18:58.000Z,100.00
2017-12-02T06:19:58.000Z,100.00
2017-12-02T06:20:58.000Z,100.00
2017-12-02T06:21:59.000Z,100.00
2017-12-02T06:22:58.000Z,100.00
2017-12-02T06:23:58.000Z,100.00
2017-12-02T06:24:59.000Z,100.00
2017-12-02T06:25:58.000Z,100.00
2017-12-02T06:26:58.000Z,100.00
2017-12-02T06:27:58.000Z,100.00
2017-12-02T06:28:58.000Z,100.00
2017-12-02T06:30:00.000Z,100.00
2017-12-02T06:31:00.000Z,100.00
2017-12-02T06:32:00.000Z,100.00
2017-12-02T06:32:59.000Z,100.00
2017-12-02T06:34:00.000Z,100.00
2017-12-02T06:34:58.000Z,100.00
2017-12-02T06:36:00.000Z,100.00
2017-12-02T06:36:58.000Z,100.00
2017-12-02T06:38:00.000Z,100.00
2017-12-02T06:39:00.000Z,100.00
2017-12-02T06:39:58.000Z,100.00
2017-12-02T06:40:58.000Z,100.00
2017-12-02T06:42:01.000Z,100.00
2017-12-02T06:42:58.000Z,100.00
2017-12-02T06:44:00.000Z,100.00
2017-12-02T06:45:00.000Z,100.00
2017-12-02T06:46:05.000Z,100.00
2017-12-02T06:46:59.000Z,100.00
2017-12-02T06:48:00.000Z,100.00
2017-12-02T06:49:00.000Z,100.00
2017-12-02T06:50:00.000Z,100.00
2017-12-02T06:51:00.000Z,100.00
2017-12-02T06:52:00.000Z,100.00
2017-12-02T06:53:00.000Z,100.00
2017-12-02T06:54:00.000Z,100.00
2017-12-02T06:54:59.000Z,100.00
2017-12-02T06:55:58.000Z,100.00
2017-12-02T06:56:58.000Z,100.00
2017-12-02T06:57:59.000Z,100.00
2017-12-02T06:59:00.000Z,100.00
2017-12-02T06:59:59.000Z,100.00
2017-12-02T07:00:59.000Z,100.00
2017-12-02T07:01:58.000Z,100.00
2017-12-02T07:02:59.000Z,100.00
2017-12-02T07:03:59.000Z,100.00
2017-12-02T07:04:59.000Z,100.00
2017-12-02T07:05:58.000Z,100.00
2017-12-02T07:06:58.000Z,100.00
2017-12-02T07:08:00.000Z,100.00
2017-12-02T07:09:00.000Z,100.00
2017-12-02T07:10:00.000Z,100.00
2017-12-02T07:11:00.000Z,100.00
2017-12-02T07:11:58.000Z,100.00
2017-12-02T07:13:00.000Z,100.00
2017-12-02T07:14:00.000Z,100.00
2017-12-02T07:15:00.000Z,100.00
2017-12-02T07:16:00.000Z,100.00
2017-12-02T07:16:59.000Z,100.00
2017-12-02T07:17:59.000Z,100.00
2017-12-02T07:18:59.000Z,100.00
2017-12-02T07:19:59.000Z,100.00
2017-12-02T07:20:59.000Z,100.00
2017-12-02T07:21:59.000Z,100.00
2017-12-02T07:22:59.000Z,100.00
2017-12-02T07:23:59.000Z,100.00
2017-12-02T07:24:59.000Z,100.00
2017-12-02T07:25:59.000Z,100.00
2017-12-02T07:27:00.000Z,100.00
2017-12-02T07:28:00.000Z,100.00
2017-12-02T07:29:01.000Z,100.00
2017-12-02T07:30:00.000Z,100.00
2017-12-02T07:31:00.000Z,100.00
2017-12-02T07:32:00.000Z,100.00
2017-12-02T07:32:59.000Z,100.00
2017-12-02T07:33:59.000Z,100.00
2017-12-02T07:34:58.000Z,100.00
2017-12-02T07:35:59.000Z,100.00
2017-12-02T07:36:59.000Z,100.00
2017-12-02T07:37:59.000Z,100.00
2017-12-02T07:38:59.000Z,100.00
2017-12-02T07:39:59.000Z,100.00
2017-12-02T07:40:59.000Z,100.00
2017-12-02T07:41:59.000Z,100.00
2017-12-02T07:42:59.000Z,100.00
2017-12-02T07:44:07.000Z,100.00
2017-12-02T07:44:59.000Z,100.00
2017-12-02T07:46:00.000Z,100.00
2017-12-02T07:47:01.000Z,100.00
2017-12-02T07:48:00.000Z,100.00
2017-12-02T07:49:00.000Z,100.00
2017-12-02T07:50:00.000Z,100.00
2017-12-02T07:50:59.000Z,100.00
2017-12-02T07:52:00.000Z,100.00
2017-12-02T07:52:59.000Z,100.00
2017-12-02T07:54:11.000Z,100.00
2017-12-02T07:54:59.000Z,100.00
2017-12-02T07:56:01.000Z,100.00
2017-12-02T07:56:59.000Z,100.00
2017-12-02T07:57:59.000Z,100.00
2017-12-02T07:59:02.000Z,100.00
2017-12-02T07:59:59.000Z,100.00
2017-12-02T08:00:59.000Z,100.00
2017-12-02T08:01:59.000Z,100.00
2017-12-02T08:02:59.000Z,100.00
2017-12-02T08:03:59.000Z,100.00
2017-12-02T08:05:00.000Z,100.00
2017-12-02T08:06:07.000Z,100.00
2017-12-02T08:06:59.000Z,100.00
2017-12-02T08:08:00.000Z,100.00
2017-12-02T08:08:59.000Z,100.00
2017-12-02T08:10:00.000Z,100.00
2017-12-02T08:10:59.000Z,100.00
2017-12-02T08:11:59.000Z,100.00
2017-12-02T08:12:59.000Z,100.00
2017-12-02T08:13:59.000Z,100.00
2017-12-02T08:14:59.000Z,100.00
2017-12-02T08:15:59.000Z,100.00
2017-12-02T08:16:59.000Z,100.00
2017-12-02T08:17:59.000Z,100.00
2017-12-02T08:18:59.000Z,100.00
2017-12-02T08:19:59.000Z,100.00
2017-12-02T08:20:59.000Z,100.00
2017-12-02T08:22:00.000Z,100.00
2017-12-02T08:23:01.000Z,100.00
2017-12-02T08:24:00.000Z,100.00
2017-12-02T08:25:00.000Z,100.00
2017-12-02T08:26:00.000Z,100.00
2017-12-02T08:27:00.000Z,100.00
2017-12-02T08:28:00.000Z,100.00
2017-12-02T08:28:59.000Z,100.00
2017-12-02T08:29:59.000Z,100.00
2017-12-02T08:30:59.000Z,100.00
2017-12-02T08:31:59.000Z,100.00
2017-12-02T08:32:59.000Z,100.00
2017-12-02T08:33:59.000Z,100.00
2017-12-02T08:34:59.000Z,100.00
2017-12-02T08:35:59.000Z,100.00
2017-12-02T08:36:59.000Z,100.00
2017-12-02T08:37:59.000Z,100.00
2017-12-02T08:39:00.000Z,100.00
2017-12-02T08:40:00.000Z,100.00
2017-12-02T08:41:00.000Z,100.00
2017-12-02T08:42:00.000Z,100.00
2017-12-02T08:43:00.000Z,100.00
2017-12-02T08:44:00.000Z,100.00
2017-12-02T08:45:00.000Z,100.00
2017-12-02T08:46:00.000Z,100.00
2017-12-02T08:47:02.000Z,100.00
2017-12-02T08:47:59.000Z,100.00
2017-12-02T08:48:59.000Z,100.00
2017-12-02T08:50:01.000Z,100.00
2017-12-02T08:51:08.000Z,100.00
2017-12-02T08:51:59.000Z,100.00
2017-12-02T08:53:01.000Z,100.00
2017-12-02T08:54:00.000Z,100.00
2017-12-02T08:55:01.000Z,100.00
2017-12-02T08:56:01.000Z,100.00
2017-12-02T08:57:00.000Z,100.00
2017-12-02T08:58:00.000Z,100.00
2017-12-02T08:59:01.000Z,100.00
2017-12-02T09:00:01.000Z,100.00
2017-12-02T09:01:01.000Z,100.00
2017-12-02T09:02:01.000Z,100.00
2017-12-02T09:03:00.000Z,100.00
2017-12-02T09:04:00.000Z,100.00
2017-12-02T09:05:01.000Z,100.00
2017-12-02T09:05:59.000Z,100.00
2017-12-02T09:06:59.000Z,100.00
2017-12-02T09:07:59.000Z,100.00
2017-12-02T09:08:59.000Z,100.00
2017-12-02T09:09:59.000Z,100.00
2017-12-02T09:10:59.000Z,100.00
2017-12-02T09:11:59.000Z,100.00
2017-12-02T09:12:59.000Z,100.00
2017-12-02T09:13:59.000Z,100.00
2017-12-02T09:14:59.000Z,100.00
2017-12-02T09:15:59.000Z,100.00
2017-12-02T09:16:59.000Z,100.00
2017-12-02T09:17:59.000Z,100.00
2017-12-02T09:19:00.000Z,100.00
2017-12-02T09:20:00.000Z,100.00
2017-12-02T09:21:00.000Z,100.00
2017-12-02T09:22:00.000Z,100.00
2017-12-02T09:22:59.000Z,100.00
2017-12-02T09:24:00.000Z,100.00
2017-12-02T09:25:00.000Z,100.00
2017-12-02T09:26:02.000Z,100.00
2017-12-02T09:26:59.000Z,100.00
2017-12-02T09:27:59.000Z,100.00
2017-12-02T09:28:59.000Z,100.00
2017-12-02T09:29:59.000Z,100.00
2017-12-02T09:30:59.000Z,100.00
2017-12-02T09:31:59.000Z,100.00
2017-12-02T09:32:59.000Z,100.00
2017-12-02T09:33:59.000Z,99.93
2017-12-02T09:34:59.000Z,99.86
2017-12-02T09:35:59.000Z,100.00
2017-12-02T09:36:59.000Z,100.00
2017-12-02T09:38:01.000Z,100.00
2017-12-02T09:39:01.000Z,100.00
2017-12-02T09:40:00.000Z,100.00
2017-12-02T09:41:01.000Z,100.00
2017-12-02T09:42:00.000Z,100.00
2017-12-02T09:43:01.000Z,100.00
2017-12-02T09:43:59.000Z,100.00
2017-12-02T09:44:59.000Z,100.00
2017-12-02T09:45:59.000Z,100.00
2017-12-02T09:46:59.000Z,100.00
2017-12-02T09:47:59.000Z,100.00
2017-12-02T09:48:59.000Z,100.00
2017-12-02T09:49:59.000Z,100.00
2017-12-02T09:50:59.000Z,100.00
2017-12-02T09:51:59.000Z,100.00
2017-12-02T09:52:59.000Z,100.00
2017-12-02T09:53:59.000Z,100.00
2017-12-02T09:54:59.000Z,100.00
2017-12-02T09:55:59.000Z,100.00
2017-12-02T09:56:59.000Z,100.00
2017-12-02T09:58:00.000Z,100.00
2017-12-02T09:59:01.000Z,100.00
2017-12-02T10:00:01.000Z,100.00
2017-12-02T10:01:01.000Z,100.00
2017-12-02T10:01:59.000Z,100.00
2017-12-02T10:03:00.000Z,100.00
2017-12-02T10:03:59.000Z,100.00
2017-12-02T10:04:59.000Z,100.00
2017-12-02T10:05:59.000Z,100.00
2017-12-02T10:07:03.000Z,100.00
2017-12-02T10:07:59.000Z,100.00
2017-12-02T10:09:00.000Z,99.61
2017-12-02T10:10:00.000Z,98.45
2017-12-02T10:11:00.000Z,98.85
2017-12-02T10:12:01.000Z,99.35
2017-12-02T10:13:00.000Z,99.11
2017-12-02T10:14:01.000Z,99.05
2017-12-02T10:15:00.000Z,99.76
2017-12-02T10:16:00.000Z,99.37
2017-12-02T10:17:00.000Z,99.59
2017-12-02T10:18:00.000Z,99.75
2017-12-02T10:18:59.000Z,99.91
2017-12-02T10:19:59.000Z,99.85
2017-12-02T10:20:59.000Z,99.73
2017-12-02T10:21:59.000Z,99.77
2017-12-02T10:22:59.000Z,98.41
2017-12-02T10:23:59.000Z,99.55
2017-12-02T10:24:59.000Z,99.54
2017-12-02T10:25:59.000Z,100.00
2017-12-02T10:26:59.000Z,99.17
2017-12-02T10:27:59.000Z,98.25
2017-12-02T10:29:00.000Z,97.76
2017-12-02T10:30:00.000Z,97.93
2017-12-02T10:31:01.000Z,97.87
2017-12-02T10:31:59.000Z,97.85
2017-12-02T10:32:59.000Z,97.64
2017-12-02T10:34:00.000Z,97.65
2017-12-02T10:35:01.000Z,97.23
2017-12-02T10:36:00.000Z,98.11
2017-12-02T10:37:01.000Z,98.56
2017-12-02T10:37:59.000Z,98.07
2017-12-02T10:38:59.000Z,98.51
2017-12-02T10:39:59.000Z,97.93
2017-12-02T10:40:59.000Z,97.55
2017-12-02T10:41:59.000Z,97.98
2017-12-02T10:42:59.000Z,97.86
2017-12-02T10:43:59.000Z,97.67
2017-12-02T10:44:59.000Z,96.86
2017-12-02T10:45:59.000Z,97.09
2017-12-02T10:46:59.000Z,96.54
2017-12-02T10:47:59.000Z,95.58
2017-12-02T10:49:00.000Z,95.10
2017-12-02T10:50:00.000Z,95.06
2017-12-02T10:51:00.000Z,95.05
2017-12-02T10:52:00.000Z,94.62
2017-12-02T10:53:01.000Z,92.24
2017-12-02T10:54:00.000Z,93.17
2017-12-02T10:55:01.000Z,91.89
2017-12-02T10:56:01.000Z,92.14
2017-12-02T10:57:00.000Z,92.48
2017-12-02T10:57:59.000Z,92.71
2017-12-02T10:58:59.000Z,93.87
2017-12-02T11:00:00.000Z,92.72
2017-12-02T11:01:01.000Z,93.68
2017-12-02T11:01:59.000Z,92.32
2017-12-02T11:02:59.000Z,91.02
2017-12-02T11:03:59.000Z,91.04
2017-12-02T11:04:59.000Z,88.85
2017-12-02T11:05:59.000Z,86.84
2017-12-02T11:06:59.000Z,87.18
2017-12-02T11:07:59.000Z,86.89
2017-12-02T11:08:59.000Z,86.06
2017-12-02T11:09:59.000Z,86.03
2017-12-02T11:11:01.000Z,82.17
2017-12-02T11:12:01.000Z,82.11
2017-12-02T11:13:00.000Z,82.31
2017-12-02T11:14:00.000Z,80.54
2017-12-02T11:15:00.000Z,82.83
2017-12-02T11:16:01.000Z,85.13
2017-12-02T11:17:01.000Z,83.87
2017-12-02T11:17:59.000Z,86.04
2017-12-02T11:19:01.000Z,81.14
2017-12-02T11:19:59.000Z,83.76
2017-12-02T11:20:59.000Z,81.87
2017-12-02T11:21:59.000Z,79.75
2017-12-02T11:22:59.000Z,78.99
2017-12-02T11:23:59.000Z,78.76
2017-12-02T11:24:59.000Z,77.02
2017-12-02T11:25:59.000Z,78.13
2017-12-02T11:26:59.000Z,77.57
2017-12-02T11:27:59.000Z,77.49
2017-12-02T11:29:00.000Z,79.75
2017-12-02T11:30:00.000Z,79.69
2017-12-02T11:31:01.000Z,80.69
2017-12-02T11:32:00.000Z,76.83
2017-12-02T11:33:00.000Z,75.90
2017-12-02T11:34:03.000Z,71.62
2017-12-02T11:35:00.000Z,73.05
2017-12-02T11:36:01.000Z,70.88
2017-12-02T11:36:59.000Z,73.08
2017-12-02T11:37:59.000Z,73.22
2017-12-02T11:38:59.000Z,73.91
2017-12-02T11:39:59.000Z,75.78
2017-12-02T11:40:59.000Z,73.28
2017-12-02T11:41:59.000Z,73.97
2017-12-02T11:42:59.000Z,75.85
2017-12-02T11:43:59.000Z,76.55
2017-12-02T11:45:00.000Z,77.00
2017-12-02T11:45:59.000Z,75.77
2017-12-02T11:46:59.000Z,75.75
2017-12-02T11:47:59.000Z,75.36
2017-12-02T11:49:01.000Z,75.89
2017-12-02T11:50:01.000Z,78.17
2017-12-02T11:51:00.000Z,77.62
2017-12-02T11:52:01.000Z,78.37
2017-12-02T11:52:59.000Z,77.65
2017-12-02T11:53:59.000Z,77.84
2017-12-02T11:54:59.000Z,76.17
2017-12-02T11:55:59.000Z,76.85
2017-12-02T11:56:59.000Z,76.92
2017-12-02T11:58:00.000Z,77.37
2017-12-02T11:58:59.000Z,76.52
2017-12-02T11:59:59.000Z,76.27
2017-12-02T12:00:59.000Z,77.02
2017-12-02T12:02:00.000Z,74.59
2017-12-02T12:02:59.000Z,74.20
2017-12-02T12:03:59.000Z,73.11
2017-12-02T12:05:01.000Z,74.73
2017-12-02T12:06:00.000Z,74.82
2017-12-02T12:07:03.000Z,76.35
2017-12-02T12:07:59.000Z,75.91
2017-12-02T12:09:01.000Z,75.33
2017-12-02T12:10:05.000Z,74.81
2017-12-02T12:11:01.000Z,77.04
2017-12-02T12:11:59.000Z,74.43
2017-12-02T12:13:03.000Z,74.11
2017-12-02T12:14:01.000Z,75.18
2017-12-02T12:14:59.000Z,74.97
2017-12-02T12:16:00.000Z,76.19
2017-12-02T12:16:59.000Z,76.03
2017-12-02T12:17:59.000Z,73.95
2017-12-02T12:19:00.000Z,75.02
2017-12-02T12:19:59.000Z,75.92
2017-12-02T12:21:00.000Z,76.10
2017-12-02T12:21:59.000Z,75.31
2017-12-02T12:23:01.000Z,74.57
2017-12-02T12:24:01.000Z,76.01
2017-12-02T12:25:01.000Z,75.84
2017-12-02T12:26:01.000Z,76.49
2017-12-02T12:27:01.000Z,76.10
2017-12-02T12:28:00.000Z,76.56
2017-12-02T12:29:01.000Z,75.46
2017-12-02T12:29:59.000Z,75.57
2017-12-02T12:30:59.000Z,76.85
2017-12-02T12:31:59.000Z,77.54
2017-12-02T12:33:00.000Z,76.42